sensor_id;sensor_type;location;lat;lon;timestamp;P1;durP1;ratioP1;P2;durP2;ratioP2
71566;SDS011;59403;47.456;19.120;2023-01-16T00:01:48;41.33;;;20.97;;
71566;SDS011;59403;47.456;19.120;2023-01-16T00:04:15;41.37;;;21.10;;
71566;SDS011;59403;47.456;19.120;2023-01-16T00:06:42;46.75;;;22.23;;
71566;SDS011;59403;47.456;19.120;2023-01-16T00:09:09;40.38;;;21.30;;
71566;SDS011;59403;47.456;19.120;2023-01-16T00:11:36;44.03;;;22.05;;
71566;SDS011;59403;47.456;19.120;2023-01-16T00:14:03;41.50;;;22.60;;
71566;SDS011;59403;47.456;19.120;2023-01-16T00:16:31;42.95;;;22.20;;
71566;SDS011;59403;47.456;19.120;2023-01-16T00:21:26;49.35;;;22.65;;
71566;SDS011;59403;47.456;19.120;2023-01-16T00:23:54;47.88;;;22.73;;
71566;SDS011;59403;47.456;19.120;2023-01-16T00:26:22;49.83;;;23.77;;
71566;SDS011;59403;47.456;19.120;2023-01-16T00:28:49;48.40;;;22.80;;
71566;SDS011;59403;47.456;19.120;2023-01-16T00:31:19;46.17;;;22.33;;
71566;SDS011;59403;47.456;19.120;2023-01-16T00:33:49;45.42;;;23.15;;
71566;SDS011;59403;47.456;19.120;2023-01-16T00:36:16;51.20;;;24.25;;
71566;SDS011;59403;47.456;19.120;2023-01-16T00:38:43;49.90;;;24.20;;
71566;SDS011;59403;47.456;19.120;2023-01-16T00:41:10;45.55;;;23.10;;
71566;SDS011;59403;47.456;19.120;2023-01-16T00:43:37;50.10;;;23.48;;
71566;SDS011;59403;47.456;19.120;2023-01-16T00:46:04;47.05;;;23.85;;
71566;SDS011;59403;47.456;19.120;2023-01-16T00:48:31;48.58;;;23.12;;
71566;SDS011;59403;47.456;19.120;2023-01-16T00:50:59;45.57;;;23.03;;
71566;SDS011;59403;47.456;19.120;2023-01-16T00:53:26;47.55;;;22.98;;
71566;SDS011;59403;47.456;19.120;2023-01-16T00:55:52;44.85;;;23.12;;
71566;SDS011;59403;47.456;19.120;2023-01-16T00:58:19;46.33;;;23.00;;
71566;SDS011;59403;47.456;19.120;2023-01-16T01:00:46;46.80;;;22.65;;
71566;SDS011;59403;47.456;19.120;2023-01-16T01:03:14;46.00;;;22.80;;
71566;SDS011;59403;47.456;19.120;2023-01-16T01:05:41;43.28;;;22.23;;
71566;SDS011;59403;47.456;19.120;2023-01-16T01:08:10;45.35;;;22.08;;
71566;SDS011;59403;47.456;19.120;2023-01-16T01:10:37;47.78;;;23.25;;
71566;SDS011;59403;47.456;19.120;2023-01-16T01:13:04;44.20;;;23.33;;
71566;SDS011;59403;47.456;19.120;2023-01-16T01:15:32;46.23;;;23.20;;
71566;SDS011;59403;47.456;19.120;2023-01-16T01:17:59;45.17;;;22.37;;
71566;SDS011;59403;47.456;19.120;2023-01-16T01:20:26;41.90;;;21.83;;
71566;SDS011;59403;47.456;19.120;2023-01-16T01:22:53;44.05;;;21.77;;
71566;SDS011;59403;47.456;19.120;2023-01-16T01:25:24;41.03;;;21.52;;
71566;SDS011;59403;47.456;19.120;2023-01-16T01:27:51;40.47;;;20.90;;
71566;SDS011;59403;47.456;19.120;2023-01-16T01:30:17;39.75;;;20.50;;
71566;SDS011;59403;47.456;19.120;2023-01-16T01:32:45;42.72;;;21.10;;
71566;SDS011;59403;47.456;19.120;2023-01-16T01:35:11;39.85;;;20.98;;
71566;SDS011;59403;47.456;19.120;2023-01-16T01:37:38;38.63;;;20.33;;
71566;SDS011;59403;47.456;19.120;2023-01-16T01:40:08;42.87;;;20.77;;
71566;SDS011;59403;47.456;19.120;2023-01-16T01:42:37;41.22;;;20.40;;
71566;SDS011;59403;47.456;19.120;2023-01-16T01:45:12;43.28;;;20.70;;
71566;SDS011;59403;47.456;19.120;2023-01-16T01:47:44;40.50;;;20.35;;
71566;SDS011;59403;47.456;19.120;2023-01-16T01:50:16;42.67;;;20.48;;
71566;SDS011;59403;47.456;19.120;2023-01-16T01:52:47;40.53;;;20.97;;
71566;SDS011;59403;47.456;19.120;2023-01-16T01:55:15;40.67;;;20.80;;
71566;SDS011;59403;47.456;19.120;2023-01-16T01:57:45;41.97;;;20.98;;
71566;SDS011;59403;47.456;19.120;2023-01-16T02:00:20;39.05;;;19.52;;
71566;SDS011;59403;47.456;19.120;2023-01-16T02:05:27;36.90;;;18.87;;
71566;SDS011;59403;47.456;19.120;2023-01-16T02:08:02;39.05;;;20.05;;
71566;SDS011;59403;47.456;19.120;2023-01-16T02:10:33;41.88;;;20.75;;
71566;SDS011;59403;47.456;19.120;2023-01-16T02:13:05;38.72;;;20.17;;
71566;SDS011;59403;47.456;19.120;2023-01-16T02:15:33;36.60;;;19.52;;
71566;SDS011;59403;47.456;19.120;2023-01-16T02:18:01;39.73;;;20.83;;
71566;SDS011;59403;47.456;19.120;2023-01-16T02:21:02;37.70;;;19.37;;
71566;SDS011;59403;47.456;19.120;2023-01-16T02:23:53;39.85;;;19.45;;
71566;SDS011;59403;47.456;19.120;2023-01-16T02:26:51;41.58;;;20.92;;
71566;SDS011;59403;47.456;19.120;2023-01-16T02:29:42;39.92;;;19.37;;
71566;SDS011;59403;47.456;19.120;2023-01-16T02:32:27;39.27;;;19.60;;
71566;SDS011;59403;47.456;19.120;2023-01-16T02:35:10;36.45;;;19.00;;
71566;SDS011;59403;47.456;19.120;2023-01-16T02:37:51;39.03;;;19.90;;
71566;SDS011;59403;47.456;19.120;2023-01-16T02:40:29;37.13;;;19.20;;
71566;SDS011;59403;47.456;19.120;2023-01-16T02:43:07;34.67;;;18.58;;
71566;SDS011;59403;47.456;19.120;2023-01-16T02:45:45;39.47;;;20.07;;
71566;SDS011;59403;47.456;19.120;2023-01-16T02:48:23;38.95;;;19.25;;
71566;SDS011;59403;47.456;19.120;2023-01-16T02:50:56;38.67;;;19.10;;
71566;SDS011;59403;47.456;19.120;2023-01-16T02:53:29;38.40;;;19.40;;
71566;SDS011;59403;47.456;19.120;2023-01-16T02:56:02;42.17;;;19.37;;
71566;SDS011;59403;47.456;19.120;2023-01-16T02:58:35;37.73;;;20.40;;
71566;SDS011;59403;47.456;19.120;2023-01-16T03:01:08;40.88;;;20.98;;
71566;SDS011;59403;47.456;19.120;2023-01-16T03:03:42;35.55;;;19.15;;
71566;SDS011;59403;47.456;19.120;2023-01-16T03:06:17;38.58;;;20.52;;
71566;SDS011;59403;47.456;19.120;2023-01-16T03:08:55;39.85;;;20.45;;
71566;SDS011;59403;47.456;19.120;2023-01-16T03:11:33;37.67;;;20.00;;
71566;SDS011;59403;47.456;19.120;2023-01-16T03:14:08;39.75;;;21.48;;
71566;SDS011;59403;47.456;19.120;2023-01-16T03:16:46;40.20;;;20.90;;
71566;SDS011;59403;47.456;19.120;2023-01-16T03:19:25;40.03;;;19.92;;
71566;SDS011;59403;47.456;19.120;2023-01-16T03:22:04;43.65;;;21.27;;
71566;SDS011;59403;47.456;19.120;2023-01-16T03:24:41;37.47;;;18.40;;
71566;SDS011;59403;47.456;19.120;2023-01-16T03:27:27;42.30;;;20.05;;
71566;SDS011;59403;47.456;19.120;2023-01-16T03:30:06;39.47;;;20.37;;
71566;SDS011;59403;47.456;19.120;2023-01-16T03:32:37;41.15;;;20.35;;
71566;SDS011;59403;47.456;19.120;2023-01-16T03:35:11;42.13;;;20.88;;
71566;SDS011;59403;47.456;19.120;2023-01-16T03:37:44;38.13;;;20.27;;
71566;SDS011;59403;47.456;19.120;2023-01-16T03:40:17;41.30;;;21.25;;
71566;SDS011;59403;47.456;19.120;2023-01-16T03:42:49;38.20;;;19.27;;
71566;SDS011;59403;47.456;19.120;2023-01-16T03:45:20;38.95;;;19.37;;
71566;SDS011;59403;47.456;19.120;2023-01-16T03:47:51;40.25;;;20.00;;
71566;SDS011;59403;47.456;19.120;2023-01-16T03:50:24;39.00;;;19.73;;
71566;SDS011;59403;47.456;19.120;2023-01-16T03:52:54;40.75;;;20.83;;
71566;SDS011;59403;47.456;19.120;2023-01-16T03:55:26;46.95;;;22.17;;
71566;SDS011;59403;47.456;19.120;2023-01-16T03:57:58;41.75;;;20.67;;
71566;SDS011;59403;47.456;19.120;2023-01-16T04:00:30;40.10;;;19.25;;
71566;SDS011;59403;47.456;19.120;2023-01-16T04:03:04;41.40;;;20.70;;
71566;SDS011;59403;47.456;19.120;2023-01-16T04:05:36;41.42;;;20.50;;
71566;SDS011;59403;47.456;19.120;2023-01-16T04:08:12;39.55;;;19.33;;
71566;SDS011;59403;47.456;19.120;2023-01-16T04:10:43;39.38;;;20.40;;
71566;SDS011;59403;47.456;19.120;2023-01-16T04:13:13;39.53;;;18.60;;
71566;SDS011;59403;47.456;19.120;2023-01-16T04:15:42;39.43;;;19.37;;
71566;SDS011;59403;47.456;19.120;2023-01-16T04:18:14;38.75;;;19.87;;
71566;SDS011;59403;47.456;19.120;2023-01-16T04:20:43;37.45;;;19.87;;
71566;SDS011;59403;47.456;19.120;2023-01-16T04:23:14;36.47;;;18.60;;
71566;SDS011;59403;47.456;19.120;2023-01-16T04:25:42;37.92;;;18.55;;
71566;SDS011;59403;47.456;19.120;2023-01-16T04:28:09;36.73;;;20.20;;
71566;SDS011;59403;47.456;19.120;2023-01-16T04:30:35;35.42;;;19.75;;
71566;SDS011;59403;47.456;19.120;2023-01-16T04:33:03;37.72;;;18.90;;
71566;SDS011;59403;47.456;19.120;2023-01-16T04:35:30;36.50;;;18.62;;
71566;SDS011;59403;47.456;19.120;2023-01-16T04:37:59;37.92;;;18.67;;
71566;SDS011;59403;47.456;19.120;2023-01-16T04:40:27;38.83;;;19.30;;
71566;SDS011;59403;47.456;19.120;2023-01-16T04:42:54;38.70;;;19.25;;
71566;SDS011;59403;47.456;19.120;2023-01-16T04:45:21;37.50;;;18.83;;
71566;SDS011;59403;47.456;19.120;2023-01-16T04:47:48;36.78;;;19.20;;
71566;SDS011;59403;47.456;19.120;2023-01-16T04:50:17;39.88;;;19.23;;
71566;SDS011;59403;47.456;19.120;2023-01-16T04:52:44;36.00;;;18.93;;
71566;SDS011;59403;47.456;19.120;2023-01-16T04:55:13;37.33;;;18.42;;
71566;SDS011;59403;47.456;19.120;2023-01-16T04:57:41;38.65;;;19.62;;
71566;SDS011;59403;47.456;19.120;2023-01-16T05:00:08;41.80;;;20.05;;
71566;SDS011;59403;47.456;19.120;2023-01-16T05:02:36;37.97;;;18.10;;
71566;SDS011;59403;47.456;19.120;2023-01-16T05:05:03;38.83;;;19.50;;
71566;SDS011;59403;47.456;19.120;2023-01-16T05:07:31;35.33;;;18.75;;
71566;SDS011;59403;47.456;19.120;2023-01-16T05:09:58;36.13;;;18.30;;
71566;SDS011;59403;47.456;19.120;2023-01-16T05:12:26;33.72;;;18.20;;
71566;SDS011;59403;47.456;19.120;2023-01-16T05:14:52;31.90;;;18.00;;
71566;SDS011;59403;47.456;19.120;2023-01-16T05:17:19;37.00;;;19.20;;
71566;SDS011;59403;47.456;19.120;2023-01-16T05:19:50;37.47;;;18.17;;
71566;SDS011;59403;47.456;19.120;2023-01-16T05:22:16;33.97;;;18.40;;
71566;SDS011;59403;47.456;19.120;2023-01-16T05:24:43;38.70;;;19.67;;
71566;SDS011;59403;47.456;19.120;2023-01-16T05:27:10;48.05;;;24.70;;
71566;SDS011;59403;47.456;19.120;2023-01-16T05:29:38;54.60;;;27.93;;
71566;SDS011;59403;47.456;19.120;2023-01-16T05:32:05;53.87;;;27.45;;
71566;SDS011;59403;47.456;19.120;2023-01-16T05:34:32;56.13;;;27.75;;
71566;SDS011;59403;47.456;19.120;2023-01-16T05:36:59;58.63;;;28.23;;
71566;SDS011;59403;47.456;19.120;2023-01-16T05:39:26;53.72;;;28.15;;
71566;SDS011;59403;47.456;19.120;2023-01-16T05:41:53;56.17;;;27.90;;
71566;SDS011;59403;47.456;19.120;2023-01-16T05:44:19;53.08;;;27.70;;
71566;SDS011;59403;47.456;19.120;2023-01-16T05:46:48;59.80;;;30.70;;
71566;SDS011;59403;47.456;19.120;2023-01-16T05:49:16;53.28;;;28.58;;
71566;SDS011;59403;47.456;19.120;2023-01-16T05:51:42;51.30;;;27.00;;
71566;SDS011;59403;47.456;19.120;2023-01-16T05:54:09;52.73;;;26.90;;
71566;SDS011;59403;47.456;19.120;2023-01-16T05:56:37;57.65;;;26.35;;
71566;SDS011;59403;47.456;19.120;2023-01-16T05:59:04;56.25;;;26.65;;
71566;SDS011;59403;47.456;19.120;2023-01-16T06:01:30;55.53;;;26.23;;
71566;SDS011;59403;47.456;19.120;2023-01-16T06:03:59;58.00;;;26.65;;
71566;SDS011;59403;47.456;19.120;2023-01-16T06:06:25;57.67;;;26.77;;
71566;SDS011;59403;47.456;19.120;2023-01-16T06:08:52;59.30;;;26.70;;
71566;SDS011;59403;47.456;19.120;2023-01-16T06:11:19;61.03;;;26.65;;
71566;SDS011;59403;47.456;19.120;2023-01-16T06:13:46;55.97;;;24.67;;
71566;SDS011;59403;47.456;19.120;2023-01-16T06:16:13;54.13;;;25.00;;
71566;SDS011;59403;47.456;19.120;2023-01-16T06:18:40;55.03;;;25.73;;
71566;SDS011;59403;47.456;19.120;2023-01-16T06:21:08;54.47;;;24.63;;
71566;SDS011;59403;47.456;19.120;2023-01-16T06:23:35;49.92;;;22.90;;
71566;SDS011;59403;47.456;19.120;2023-01-16T06:26:02;52.47;;;23.30;;
71566;SDS011;59403;47.456;19.120;2023-01-16T06:28:30;49.13;;;22.23;;
71566;SDS011;59403;47.456;19.120;2023-01-16T06:30:57;56.17;;;22.23;;
71566;SDS011;59403;47.456;19.120;2023-01-16T06:33:24;48.28;;;22.67;;
71566;SDS011;59403;47.456;19.120;2023-01-16T06:35:51;50.65;;;21.65;;
71566;SDS011;59403;47.456;19.120;2023-01-16T06:38:19;50.90;;;21.30;;
71566;SDS011;59403;47.456;19.120;2023-01-16T06:40:46;46.22;;;20.67;;
71566;SDS011;59403;47.456;19.120;2023-01-16T06:43:14;47.07;;;21.57;;
71566;SDS011;59403;47.456;19.120;2023-01-16T06:45:41;48.90;;;20.48;;
71566;SDS011;59403;47.456;19.120;2023-01-16T06:48:10;48.38;;;21.27;;
71566;SDS011;59403;47.456;19.120;2023-01-16T06:50:37;46.45;;;20.30;;
71566;SDS011;59403;47.456;19.120;2023-01-16T06:53:04;44.67;;;20.25;;
71566;SDS011;59403;47.456;19.120;2023-01-16T06:55:32;46.93;;;20.17;;
71566;SDS011;59403;47.456;19.120;2023-01-16T06:57:58;48.25;;;20.50;;
71566;SDS011;59403;47.456;19.120;2023-01-16T07:00:25;45.65;;;20.00;;
71566;SDS011;59403;47.456;19.120;2023-01-16T07:02:52;46.10;;;20.42;;
71566;SDS011;59403;47.456;19.120;2023-01-16T07:05:20;42.75;;;19.27;;
71566;SDS011;59403;47.456;19.120;2023-01-16T07:07:48;41.87;;;19.37;;
71566;SDS011;59403;47.456;19.120;2023-01-16T07:10:15;46.20;;;20.95;;
71566;SDS011;59403;47.456;19.120;2023-01-16T07:12:44;47.38;;;20.52;;
71566;SDS011;59403;47.456;19.120;2023-01-16T07:15:10;49.83;;;21.42;;
71566;SDS011;59403;47.456;19.120;2023-01-16T07:17:54;42.78;;;18.77;;
71566;SDS011;59403;47.456;19.120;2023-01-16T07:20:39;50.63;;;21.07;;
71566;SDS011;59403;47.456;19.120;2023-01-16T07:23:24;43.10;;;19.20;;
71566;SDS011;59403;47.456;19.120;2023-01-16T07:25:54;44.35;;;19.27;;
71566;SDS011;59403;47.456;19.120;2023-01-16T07:28:27;44.92;;;19.60;;
71566;SDS011;59403;47.456;19.120;2023-01-16T07:30:55;42.33;;;19.52;;
71566;SDS011;59403;47.456;19.120;2023-01-16T07:33:23;40.80;;;19.60;;
71566;SDS011;59403;47.456;19.120;2023-01-16T07:35:50;47.03;;;19.55;;
71566;SDS011;59403;47.456;19.120;2023-01-16T07:38:17;43.53;;;19.90;;
71566;SDS011;59403;47.456;19.120;2023-01-16T07:40:44;42.58;;;19.95;;
71566;SDS011;59403;47.456;19.120;2023-01-16T07:43:11;40.55;;;19.15;;
71566;SDS011;59403;47.456;19.120;2023-01-16T07:45:39;41.07;;;19.40;;
71566;SDS011;59403;47.456;19.120;2023-01-16T07:48:06;45.63;;;20.25;;
71566;SDS011;59403;47.456;19.120;2023-01-16T07:50:33;44.58;;;19.20;;
71566;SDS011;59403;47.456;19.120;2023-01-16T07:52:59;43.10;;;20.70;;
71566;SDS011;59403;47.456;19.120;2023-01-16T07:55:26;42.85;;;19.67;;
71566;SDS011;59403;47.456;19.120;2023-01-16T07:57:53;37.40;;;18.43;;
71566;SDS011;59403;47.456;19.120;2023-01-16T08:00:20;41.33;;;19.00;;
71566;SDS011;59403;47.456;19.120;2023-01-16T08:02:49;40.00;;;18.77;;
71566;SDS011;59403;47.456;19.120;2023-01-16T08:05:16;39.10;;;18.23;;
71566;SDS011;59403;47.456;19.120;2023-01-16T08:07:43;45.50;;;20.08;;
71566;SDS011;59403;47.456;19.120;2023-01-16T08:10:11;46.83;;;20.27;;
71566;SDS011;59403;47.456;19.120;2023-01-16T08:12:38;46.13;;;20.50;;
71566;SDS011;59403;47.456;19.120;2023-01-16T08:15:05;39.30;;;18.12;;
71566;SDS011;59403;47.456;19.120;2023-01-16T08:17:33;41.70;;;18.95;;
71566;SDS011;59403;47.456;19.120;2023-01-16T08:20:01;41.53;;;19.05;;
71566;SDS011;59403;47.456;19.120;2023-01-16T08:22:28;45.73;;;19.63;;
71566;SDS011;59403;47.456;19.120;2023-01-16T08:24:55;45.78;;;20.75;;
71566;SDS011;59403;47.456;19.120;2023-01-16T08:27:22;42.28;;;19.45;;
71566;SDS011;59403;47.456;19.120;2023-01-16T08:29:48;41.90;;;19.23;;
71566;SDS011;59403;47.456;19.120;2023-01-16T08:32:15;41.28;;;19.45;;
71566;SDS011;59403;47.456;19.120;2023-01-16T08:34:42;38.93;;;18.60;;
71566;SDS011;59403;47.456;19.120;2023-01-16T08:37:11;40.22;;;18.77;;
71566;SDS011;59403;47.456;19.120;2023-01-16T08:39:40;40.53;;;17.98;;
71566;SDS011;59403;47.456;19.120;2023-01-16T08:42:06;45.25;;;19.58;;
71566;SDS011;59403;47.456;19.120;2023-01-16T08:44:50;36.60;;;18.30;;
71566;SDS011;59403;47.456;19.120;2023-01-16T08:47:35;35.53;;;17.20;;
71566;SDS011;59403;47.456;19.120;2023-01-16T08:50:20;35.70;;;16.80;;
71566;SDS011;59403;47.456;19.120;2023-01-16T08:53:06;39.58;;;17.62;;
71566;SDS011;59403;47.456;19.120;2023-01-16T08:55:33;36.03;;;16.40;;
71566;SDS011;59403;47.456;19.120;2023-01-16T08:58:01;35.30;;;16.33;;
71566;SDS011;59403;47.456;19.120;2023-01-16T09:00:28;33.70;;;16.07;;
71566;SDS011;59403;47.456;19.120;2023-01-16T09:02:55;36.53;;;16.73;;
71566;SDS011;59403;47.456;19.120;2023-01-16T09:05:24;35.35;;;16.55;;
71566;SDS011;59403;47.456;19.120;2023-01-16T09:07:51;37.53;;;15.90;;
71566;SDS011;59403;47.456;19.120;2023-01-16T09:10:20;34.63;;;16.02;;
71566;SDS011;59403;47.456;19.120;2023-01-16T09:12:47;38.50;;;17.77;;
71566;SDS011;59403;47.456;19.120;2023-01-16T09:15:31;39.35;;;16.27;;
71566;SDS011;59403;47.456;19.120;2023-01-16T09:17:58;36.65;;;16.02;;
71566;SDS011;59403;47.456;19.120;2023-01-16T09:20:24;40.72;;;17.00;;
71566;SDS011;59403;47.456;19.120;2023-01-16T09:22:55;42.72;;;17.70;;
71566;SDS011;59403;47.456;19.120;2023-01-16T09:25:27;39.33;;;16.90;;
71566;SDS011;59403;47.456;19.120;2023-01-16T09:27:55;35.78;;;16.70;;
71566;SDS011;59403;47.456;19.120;2023-01-16T09:30:22;42.78;;;17.40;;
71566;SDS011;59403;47.456;19.120;2023-01-16T09:32:51;34.60;;;13.38;;
71566;SDS011;59403;47.456;19.120;2023-01-16T09:35:20;34.00;;;14.70;;
71566;SDS011;59403;47.456;19.120;2023-01-16T09:40:45;40.78;;;15.55;;
71566;SDS011;59403;47.456;19.120;2023-01-16T09:43:22;40.28;;;15.45;;
71566;SDS011;59403;47.456;19.120;2023-01-16T09:46:01;41.92;;;17.55;;
71566;SDS011;59403;47.456;19.120;2023-01-16T09:48:35;43.72;;;16.90;;
71566;SDS011;59403;47.456;19.120;2023-01-16T09:51:07;42.20;;;16.33;;
71566;SDS011;59403;47.456;19.120;2023-01-16T09:53:39;44.67;;;17.23;;
71566;SDS011;59403;47.456;19.120;2023-01-16T09:56:30;43.75;;;17.40;;
71566;SDS011;59403;47.456;19.120;2023-01-16T09:59:27;48.25;;;16.62;;
71566;SDS011;59403;47.456;19.120;2023-01-16T10:02:00;43.22;;;18.42;;
71566;SDS011;59403;47.456;19.120;2023-01-16T10:04:35;45.50;;;18.50;;
71566;SDS011;59403;47.456;19.120;2023-01-16T10:07:15;49.33;;;19.05;;
71566;SDS011;59403;47.456;19.120;2023-01-16T10:09:55;39.20;;;16.17;;
71566;SDS011;59403;47.456;19.120;2023-01-16T10:12:30;42.30;;;17.75;;
71566;SDS011;59403;47.456;19.120;2023-01-16T10:15:05;47.15;;;18.73;;
71566;SDS011;59403;47.456;19.120;2023-01-16T10:17:43;44.37;;;17.93;;
71566;SDS011;59403;47.456;19.120;2023-01-16T10:20:27;51.35;;;19.12;;
71566;SDS011;59403;47.456;19.120;2023-01-16T10:23:10;48.47;;;18.67;;
71566;SDS011;59403;47.456;19.120;2023-01-16T10:25:48;49.47;;;19.33;;
71566;SDS011;59403;47.456;19.120;2023-01-16T10:30:51;51.50;;;19.10;;
71566;SDS011;59403;47.456;19.120;2023-01-16T10:33:22;47.30;;;18.87;;
71566;SDS011;59403;47.456;19.120;2023-01-16T10:35:55;44.65;;;17.35;;
71566;SDS011;59403;47.456;19.120;2023-01-16T10:38:25;42.53;;;17.20;;
71566;SDS011;59403;47.456;19.120;2023-01-16T10:41:07;46.55;;;18.95;;
71566;SDS011;59403;47.456;19.120;2023-01-16T10:43:58;50.23;;;18.97;;
71566;SDS011;59403;47.456;19.120;2023-01-16T10:46:46;41.42;;;17.23;;
71566;SDS011;59403;47.456;19.120;2023-01-16T10:49:31;44.83;;;18.23;;
71566;SDS011;59403;47.456;19.120;2023-01-16T10:51:58;47.17;;;18.67;;
71566;SDS011;59403;47.456;19.120;2023-01-16T10:54:28;41.67;;;19.00;;
71566;SDS011;59403;47.456;19.120;2023-01-16T10:56:55;38.73;;;16.50;;
71566;SDS011;59403;47.456;19.120;2023-01-16T10:59:26;43.75;;;17.92;;
71566;SDS011;59403;47.456;19.120;2023-01-16T11:01:55;45.22;;;18.37;;
71566;SDS011;59403;47.456;19.120;2023-01-16T11:04:32;41.60;;;17.73;;
71566;SDS011;59403;47.456;19.120;2023-01-16T11:09:43;44.73;;;18.57;;
71566;SDS011;59403;47.456;19.120;2023-01-16T11:12:13;46.00;;;18.92;;
71566;SDS011;59403;47.456;19.120;2023-01-16T11:15:07;45.65;;;18.80;;
71566;SDS011;59403;47.456;19.120;2023-01-16T11:17:59;40.88;;;17.05;;
71566;SDS011;59403;47.456;19.120;2023-01-16T11:20:43;43.95;;;18.30;;
71566;SDS011;59403;47.456;19.120;2023-01-16T11:23:15;44.70;;;17.50;;
71566;SDS011;59403;47.456;19.120;2023-01-16T11:25:45;42.45;;;18.80;;
71566;SDS011;59403;47.456;19.120;2023-01-16T11:28:17;43.95;;;17.62;;
71566;SDS011;59403;47.456;19.120;2023-01-16T11:30:47;43.72;;;18.02;;
71566;SDS011;59403;47.456;19.120;2023-01-16T11:33:19;33.78;;;14.98;;
71566;SDS011;59403;47.456;19.120;2023-01-16T11:35:51;42.43;;;17.03;;
71566;SDS011;59403;47.456;19.120;2023-01-16T11:38:21;44.25;;;17.42;;
71566;SDS011;59403;47.456;19.120;2023-01-16T11:40:48;43.87;;;18.08;;
71566;SDS011;59403;47.456;19.120;2023-01-16T11:43:21;41.00;;;17.87;;
71566;SDS011;59403;47.456;19.120;2023-01-16T11:46:19;44.97;;;17.10;;
71566;SDS011;59403;47.456;19.120;2023-01-16T11:48:58;45.73;;;17.37;;
71566;SDS011;59403;47.456;19.120;2023-01-16T11:51:27;49.90;;;18.60;;
71566;SDS011;59403;47.456;19.120;2023-01-16T11:53:55;39.65;;;15.38;;
71566;SDS011;59403;47.456;19.120;2023-01-16T11:56:33;44.38;;;16.42;;
71566;SDS011;59403;47.456;19.120;2023-01-16T11:59:24;44.28;;;16.00;;
71566;SDS011;59403;47.456;19.120;2023-01-16T12:02:19;51.43;;;19.57;;
71566;SDS011;59403;47.456;19.120;2023-01-16T12:05:04;46.97;;;18.25;;
71566;SDS011;59403;47.456;19.120;2023-01-16T12:08:16;50.92;;;18.92;;
71566;SDS011;59403;47.456;19.120;2023-01-16T12:10:56;52.95;;;19.08;;
71566;SDS011;59403;47.456;19.120;2023-01-16T12:13:31;51.13;;;17.95;;
71566;SDS011;59403;47.456;19.120;2023-01-16T12:16:24;48.40;;;17.17;;
71566;SDS011;59403;47.456;19.120;2023-01-16T12:19:02;48.38;;;19.17;;
71566;SDS011;59403;47.456;19.120;2023-01-16T12:21:48;42.67;;;17.15;;
71566;SDS011;59403;47.456;19.120;2023-01-16T12:24:25;50.15;;;18.12;;
71566;SDS011;59403;47.456;19.120;2023-01-16T12:27:05;48.00;;;18.08;;
71566;SDS011;59403;47.456;19.120;2023-01-16T12:29:47;36.70;;;14.67;;
71566;SDS011;59403;47.456;19.120;2023-01-16T12:32:30;39.28;;;14.85;;
71566;SDS011;59403;47.456;19.120;2023-01-16T12:35:07;39.50;;;15.25;;
71566;SDS011;59403;47.456;19.120;2023-01-16T12:40:45;46.65;;;18.05;;
71566;SDS011;59403;47.456;19.120;2023-01-16T12:43:44;51.37;;;19.53;;
71566;SDS011;59403;47.456;19.120;2023-01-16T12:46:20;50.30;;;18.70;;
71566;SDS011;59403;47.456;19.120;2023-01-16T12:48:57;50.83;;;19.73;;
71566;SDS011;59403;47.456;19.120;2023-01-16T12:51:44;49.42;;;18.65;;
71566;SDS011;59403;47.456;19.120;2023-01-16T12:54:30;59.55;;;21.15;;
71566;SDS011;59403;47.456;19.120;2023-01-16T12:57:16;53.80;;;21.20;;
71566;SDS011;59403;47.456;19.120;2023-01-16T13:02:58;55.90;;;22.52;;
71566;SDS011;59403;47.456;19.120;2023-01-16T13:05:38;51.05;;;20.50;;
71566;SDS011;59403;47.456;19.120;2023-01-16T13:08:18;51.25;;;20.48;;
71566;SDS011;59403;47.456;19.120;2023-01-16T13:11:42;52.33;;;21.07;;
71566;SDS011;59403;47.456;19.120;2023-01-16T13:14:33;47.33;;;19.70;;
71566;SDS011;59403;47.456;19.120;2023-01-16T13:17:04;48.55;;;21.85;;
71566;SDS011;59403;47.456;19.120;2023-01-16T13:19:36;46.85;;;20.90;;
71566;SDS011;59403;47.456;19.120;2023-01-16T13:22:12;48.65;;;19.98;;
71566;SDS011;59403;47.456;19.120;2023-01-16T13:24:56;44.33;;;19.53;;
71566;SDS011;59403;47.456;19.120;2023-01-16T13:27:36;51.42;;;21.87;;
71566;SDS011;59403;47.456;19.120;2023-01-16T13:30:08;44.45;;;20.27;;
71566;SDS011;59403;47.456;19.120;2023-01-16T13:32:40;44.17;;;19.08;;
71566;SDS011;59403;47.456;19.120;2023-01-16T13:35:12;47.08;;;19.80;;
71566;SDS011;59403;47.456;19.120;2023-01-16T13:37:49;41.07;;;18.30;;
71566;SDS011;59403;47.456;19.120;2023-01-16T13:40:57;47.60;;;20.30;;
71566;SDS011;59403;47.456;19.120;2023-01-16T13:43:42;43.72;;;18.90;;
71566;SDS011;59403;47.456;19.120;2023-01-16T13:46:30;41.75;;;18.67;;
71566;SDS011;59403;47.456;19.120;2023-01-16T13:48:59;45.28;;;18.58;;
71566;SDS011;59403;47.456;19.120;2023-01-16T13:51:28;44.03;;;19.70;;
71566;SDS011;59403;47.456;19.120;2023-01-16T13:53:56;43.25;;;18.80;;
71566;SDS011;59403;47.456;19.120;2023-01-16T13:56:28;41.45;;;18.35;;
71566;SDS011;59403;47.456;19.120;2023-01-16T13:58:59;42.88;;;18.98;;
71566;SDS011;59403;47.456;19.120;2023-01-16T14:01:32;42.90;;;18.42;;
71566;SDS011;59403;47.456;19.120;2023-01-16T14:06:53;37.28;;;16.98;;
71566;SDS011;59403;47.456;19.120;2023-01-16T14:12:42;39.08;;;17.20;;
71566;SDS011;59403;47.456;19.120;2023-01-16T14:15:29;41.85;;;16.52;;
71566;SDS011;59403;47.456;19.120;2023-01-16T14:18:40;35.87;;;15.40;;
71566;SDS011;59403;47.456;19.120;2023-01-16T14:21:10;36.58;;;16.20;;
71566;SDS011;59403;47.456;19.120;2023-01-16T14:23:44;37.72;;;16.95;;
71566;SDS011;59403;47.456;19.120;2023-01-16T14:26:32;43.03;;;18.35;;
71566;SDS011;59403;47.456;19.120;2023-01-16T14:29:03;38.17;;;16.77;;
71566;SDS011;59403;47.456;19.120;2023-01-16T14:31:41;37.70;;;16.43;;
71566;SDS011;59403;47.456;19.120;2023-01-16T14:37:21;39.70;;;16.30;;
71566;SDS011;59403;47.456;19.120;2023-01-16T14:39:51;36.92;;;16.40;;
71566;SDS011;59403;47.456;19.120;2023-01-16T14:42:21;38.22;;;16.62;;
71566;SDS011;59403;47.456;19.120;2023-01-16T14:45:21;42.00;;;17.50;;
71566;SDS011;59403;47.456;19.120;2023-01-16T14:48:11;33.70;;;16.05;;
71566;SDS011;59403;47.456;19.120;2023-01-16T14:50:58;38.45;;;16.55;;
71566;SDS011;59403;47.456;19.120;2023-01-16T14:53:51;37.00;;;15.57;;
71566;SDS011;59403;47.456;19.120;2023-01-16T14:56:40;43.80;;;16.77;;
71566;SDS011;59403;47.456;19.120;2023-01-16T14:59:09;37.20;;;15.13;;
71566;SDS011;59403;47.456;19.120;2023-01-16T15:01:42;35.00;;;15.27;;
71566;SDS011;59403;47.456;19.120;2023-01-16T15:04:37;36.78;;;15.70;;
71566;SDS011;59403;47.456;19.120;2023-01-16T15:07:10;38.42;;;16.65;;
71566;SDS011;59403;47.456;19.120;2023-01-16T15:09:39;38.05;;;15.20;;
71566;SDS011;59403;47.456;19.120;2023-01-16T15:12:10;37.43;;;16.00;;